Kota Ria — 9VJK4 — position and weather

sailwx.info

Track history (hours):
 
Tides and Currents Weather Stations Pressure Air Temp Water Temp Dewpoint Dewpoint Depression Visibility Wind Speed Wind Dir Waves Ship Positions

Kota Ria

Last reported at 2014-Sep-02 12:31 UTC. Time now 2014-Sep-02 21:45 UTC.
Position N 01°15' E 104°02'.

Length 146 m; draft 6.5 m.

Type: Cargo ship. MMSI: 565050000.

Date/timePositionNaut miles runAvg speedWind from/ knotsBaromVisibWave heightAir tempDewpointWater temp
2014-Sep-02 12:31N 01°15' E 104°02'1412.2
2014-Sep-02 11:22N 01°12' E 103°49'6 7.2
2014-Sep-02 10:33N 01°17' E 103°46'1 0.2
2014-Sep-02 07:15N 01°17' E 103°46'0 0.0
2014-Sep-02 06:30N 01°17' E 103°46'0 0.0
2014-Sep-02 05:30N 01°17' E 103°46'0 0.0
2014-Sep-02 04:27N 01°17' E 103°46'0 0.0
2014-Sep-02 03:24N 01°17' E 103°46'0 0.0
2014-Sep-02 02:30N 01°17' E 103°46'0 0.0
2014-Sep-02 01:32N 01°17' E 103°46'0 0.0
2014-Sep-02 00:32N 01°17' E 103°46'0 0.0
2014-Sep-01 23:29N 01°17' E 103°46'0 0.0
2014-Sep-01 22:29N 01°17' E 103°46'0 0.0
2014-Sep-01 21:29N 01°17' E 103°46'0 0.0
2014-Sep-01 20:32N 01°17' E 103°46'0 0.0
2014-Sep-01 19:32N 01°17' E 103°46'0 0.0
2014-Sep-01 18:32N 01°17' E 103°46'0 0.0
2014-Sep-01 17:29N 01°17' E 103°46'1 1.1
2014-Sep-01 16:33N 01°17' E 103°45'8 7.5
2014-Sep-01 15:30N 01°12' E 103°39'  
Track history (hours):
 
Tides and Currents Weather Stations Pressure Air Temp Water Temp Dewpoint Dewpoint Depression Visibility Wind Speed Wind Dir Waves Ship Positions

Kota Ria

Last reported at 2014-Sep-02 12:31 UTC. Time now 2014-Sep-02 21:45 UTC.
Position N 01°15' E 104°02'.

Length 146 m; draft 6.5 m.

Type: Cargo ship. MMSI: 565050000.

Date/timePositionNaut miles runAvg speedWind from/ knotsBaromVisibWave heightAir tempDewpointWater temp
2014-Sep-02 12:31N 01°15' E 104°02'1412.2
2014-Sep-02 11:22N 01°12' E 103°49'6 7.2
2014-Sep-02 10:33N 01°17' E 103°46'1 0.2
2014-Sep-02 07:15N 01°17' E 103°46'0 0.0
2014-Sep-02 06:30N 01°17' E 103°46'0 0.0
2014-Sep-02 05:30N 01°17' E 103°46'0 0.0
2014-Sep-02 04:27N 01°17' E 103°46'0 0.0
2014-Sep-02 03:24N 01°17' E 103°46'0 0.0
2014-Sep-02 02:30N 01°17' E 103°46'0 0.0
2014-Sep-02 01:32N 01°17' E 103°46'0 0.0
2014-Sep-02 00:32N 01°17' E 103°46'0 0.0
2014-Sep-01 23:29N 01°17' E 103°46'0 0.0
2014-Sep-01 22:29N 01°17' E 103°46'0 0.0
2014-Sep-01 21:29N 01°17' E 103°46'0 0.0
2014-Sep-01 20:32N 01°17' E 103°46'0 0.0
2014-Sep-01 19:32N 01°17' E 103°46'0 0.0
2014-Sep-01 18:32N 01°17' E 103°46'0 0.0
2014-Sep-01 17:29N 01°17' E 103°46'1 1.1
2014-Sep-01 16:33N 01°17' E 103°45'8 7.5
2014-Sep-01 15:30N 01°12' E 103°39'  

Dump ship's entire track history